LIED

Details ICAO LIED (DCI)
Name DECIMOMANNU
Region Italy
Timezone Europe/Rome (UTC+1.0)
Plans Departing 7
Arriving 11
Stats Elevation 100 ft / 30 m (AMSL)
Location 39.353939° 8.972494°
Runways 2
Magnetic Variation 2.212° E
Sunrise 2017-03-25 05:20:49 UTC / 2017-03-25 06:20:49 Local
Sunset 2017-03-25 17:41:45 UTC / 2017-03-25 18:41:45 Local
Advertisement - Login to hide

Runways

ID Width Length Bearing (true) Bearing (mag) Surface Threshold Offset Overrun Length
17L 148 ft / 45 m 9,799 ft / 2,987 m 167.21° 165.00° Asphalt 494 ft / 151 m 0 ft / 0 m
17R 74 ft / 23 m 8,580 ft / 2,615 m 167.00° 164.79° Asphalt 0 ft / 0 m 0 ft / 0 m
35L 74 ft / 23 m 8,580 ft / 2,615 m 347.00° 344.79° Asphalt 0 ft / 0 m 0 ft / 0 m
35R 148 ft / 45 m 9,799 ft / 2,987 m 347.21° 345.00° Asphalt 495 ft / 151 m 0 ft / 0 m

Map

Weather

Temperature
Clouds and Precipitation
Forecast for 2017-03-25 12:00 UTC. Updated 8 minutes ago
Winds

METAR

LIED 250855Z 32003KT 7000 SCT010 BKN018 13/10 Q1019 RMK OVC VIS MIN 7000 WIND THR35 32006KT WIND THR17 /////KT WHT

TAF

Not found

Frequencies

Tower 122.10 MHz TWR
Approach 118.40 MHz CAGLIARI APP
Approach 118.75 MHz CAGLIARI APP
Warning: Do not use this data for real-world aviation or navigation. No guarantee of current accuracy is given.